EGFF/CWL METAR and TAF weather

Enter ICAO airport designator
Station Type Date Time Source
EGFF METAR 2020/05/30 06:20 UTC NOAA

EGFF 300620Z AUTO 07012KT 9999 NCD 14/04 Q1023


Station Type Date Time Source
EGFF Decoded METAR 2020/05/30 06:20 UTC NOAA

Cardiff-Wales Airport, United Kingdom (EGFF) 51-24N 003-21W 0M
May 30, 2020 - 02:20 AM EDT / 2020.05.30 0620 UTC
Wind: from the ENE (070 degrees) at 14 MPH (12 KT):0
Visibility: greater than 7 mile(s):0
Temperature: 57 F (14 C)
Dew Point: 39 F (4 C)
Relative Humidity: 50%
Pressure (altimeter): 30.21 in. Hg (1023 hPa)
ob: EGFF 300620Z AUTO 07012KT 9999 NCD 14/04 Q1023
cycle: 6

Station Type Date Time Source
EGFF TAF 2020/05/30 06:09 UTC NOAA

TAF EGFF 300455Z 3006/3106 08009KT CAVOK

Example: see airport list